Terminal Aerodrome Forecast
Issued by NWS

Home | Current Version | Previous Version | Text Only | Print | Product List | Glossary On
Versions: 1 2 3 4 5 6 7 8 9 10 11 12 13 14 15 16 17 18 19 20 21 22
000
FTUS43 KDVN 291142
TAFBRL
TAF
KBRL 291142Z 2912/3012 35009KT P6SM SKC
     FM291330 36011G17KT P6SM BKN015
     FM291600 36013G19KT P6SM BKN035
     FM300000 02010KT P6SM BKN040
     FM300700 01009KT P6SM SCT015 BKN025=

USA.gov is the U.S. government's official web portal to all federal, state and local government web resources and services.